createdAt,value
2018-09-18T00:06:02.197Z,16.87
2018-09-18T00:21:36.452Z,19.23
2018-09-18T00:37:10.027Z,19.57
2018-09-18T00:52:43.962Z,19.43
2018-09-18T01:08:18.879Z,19.47
2018-09-18T01:23:55.536Z,21.00
2018-09-18T01:39:32.409Z,21.27
2018-09-18T01:55:06.499Z,20.47
2018-09-18T02:10:40.153Z,20.07
2018-09-18T02:42:28.332Z,19.50
2018-09-18T02:58:07.006Z,17.07
2018-09-18T03:13:42.421Z,16.07
2018-09-18T03:29:24.465Z,17.20
2018-09-18T03:45:03.859Z,14.83
2018-09-18T04:00:38.209Z,14.97
2018-09-18T04:32:09.060Z,15.27
2018-09-18T04:47:43.734Z,17.50
2018-09-18T05:03:18.107Z,15.40
2018-09-18T05:18:51.869Z,11.43
2018-09-18T05:34:25.548Z,9.03
2018-09-18T05:50:00.135Z,10.43
2018-09-18T06:05:36.284Z,10.27
2018-09-18T06:21:10.764Z,11.53
2018-09-18T06:36:45.479Z,9.53
2018-09-18T06:52:19.697Z,7.67
2018-09-18T07:07:54.160Z,5.37
2018-09-18T07:23:28.125Z,4.93
2018-09-18T07:39:02.433Z,7.07
2018-09-18T07:54:36.528Z,5.33
2018-09-18T08:10:10.352Z,6.17
2018-09-18T08:25:44.341Z,6.37
2018-09-18T08:41:17.749Z,6.93
2018-09-18T08:56:52.335Z,7.70
2018-09-18T09:12:25.762Z,10.03
2018-09-18T09:27:59.673Z,7.53
2018-09-18T09:43:32.615Z,10.33
2018-09-18T09:59:06.606Z,29.93
2018-09-18T10:14:40.311Z,8.27
2018-09-18T10:29:44.039Z,8.37
2018-09-18T10:44:47.829Z,7.93
2018-09-18T10:59:51.639Z,8.30
2018-09-18T11:14:55.589Z,7.63
2018-09-18T11:29:59.316Z,7.27
2018-09-18T11:45:03.132Z,6.47
2018-09-18T12:00:07.081Z,8.03
2018-09-18T12:15:11.262Z,6.20
2018-09-18T12:30:15.121Z,6.77
2018-09-18T12:45:18.977Z,7.33
2018-09-18T13:00:22.965Z,7.23
2018-09-18T13:15:26.749Z,6.73
2018-09-18T13:30:30.791Z,6.57
2018-09-18T13:45:34.612Z,6.70
2018-09-18T14:00:38.537Z,6.90
2018-09-18T14:15:42.371Z,6.20
2018-09-18T14:30:46.229Z,5.67
2018-09-18T14:45:50.061Z,6.27
2018-09-18T15:00:53.949Z,6.87
2018-09-18T15:15:57.760Z,7.60
2018-09-18T15:31:01.579Z,7.67
2018-09-18T15:46:05.556Z,7.90
2018-09-18T16:01:09.334Z,8.00
2018-09-18T16:16:13.165Z,8.47
2018-09-18T16:31:16.989Z,8.80
2018-09-18T16:46:20.815Z,9.20
2018-09-18T17:01:24.667Z,8.27
2018-09-18T17:16:28.533Z,8.30
2018-09-18T17:31:32.416Z,8.73
2018-09-18T17:46:36.269Z,9.00
2018-09-18T18:01:41.350Z,8.63
2018-09-18T18:16:45.379Z,8.90
2018-09-18T18:31:50.832Z,8.53
2018-09-18T18:46:54.676Z,9.23
2018-09-18T19:01:59.785Z,8.87
2018-09-18T19:17:03.761Z,9.47
2018-09-18T19:32:07.640Z,8.43
2018-09-18T19:47:11.648Z,8.87
2018-09-18T20:02:15.614Z,8.87
2018-09-18T20:17:19.604Z,9.53
2018-09-18T20:32:23.532Z,12.13
2018-09-18T20:47:27.375Z,11.10
2018-09-18T21:02:31.266Z,11.00
2018-09-18T21:17:35.124Z,12.23
2018-09-18T21:32:41.242Z,11.37
2018-09-18T21:47:45.094Z,10.50
2018-09-18T22:02:49.402Z,13.10
2018-09-18T22:17:53.279Z,11.67
2018-09-18T22:32:58.487Z,11.73
2018-09-18T22:48:02.332Z,10.73
2018-09-18T23:03:06.986Z,11.97
2018-09-18T23:18:10.840Z,12.53
2018-09-18T23:33:14.679Z,13.57
2018-09-18T23:48:18.539Z,13.73
